createdAt,value
2018-02-16T00:00:29.305Z,961.62
2018-02-16T00:01:29.247Z,961.64
2018-02-16T00:02:29.188Z,961.64
2018-02-16T00:03:29.121Z,961.67
2018-02-16T00:04:29.069Z,961.58
2018-02-16T00:05:29.008Z,961.63
2018-02-16T00:06:28.951Z,961.61
2018-02-16T00:07:28.890Z,961.61
2018-02-16T00:08:28.829Z,961.54
2018-02-16T00:09:28.768Z,961.63
2018-02-16T00:10:28.715Z,961.68
2018-02-16T00:11:28.652Z,961.61
2018-02-16T00:12:28.594Z,961.60
2018-02-16T00:13:28.535Z,961.65
2018-02-16T00:14:28.472Z,961.62
2018-02-16T00:15:28.412Z,961.63
2018-02-16T00:16:28.353Z,961.61
2018-02-16T00:17:28.294Z,961.64
2018-02-16T00:18:28.235Z,961.68
2018-02-16T00:19:28.173Z,961.69
2018-02-16T00:20:28.115Z,961.57
2018-02-16T00:21:28.057Z,961.64
2018-02-16T00:22:27.997Z,961.56
2018-02-16T00:23:27.937Z,961.65
2018-02-16T00:24:27.878Z,961.63
2018-02-16T00:25:27.818Z,961.57
2018-02-16T00:26:27.759Z,961.62
2018-02-16T00:27:27.708Z,961.65
2018-02-16T00:28:27.640Z,961.56
2018-02-16T00:29:27.582Z,961.57
2018-02-16T00:30:27.524Z,961.56
2018-02-16T00:31:27.461Z,961.54
2018-02-16T00:32:27.403Z,961.50
2018-02-16T00:33:27.348Z,961.49
2018-02-16T00:34:27.289Z,961.52
2018-02-16T00:35:27.225Z,961.52
2018-02-16T00:36:27.163Z,961.54
2018-02-16T00:37:27.105Z,961.52
2018-02-16T00:38:27.056Z,961.54
2018-02-16T00:39:26.987Z,961.52
2018-02-16T00:40:26.927Z,961.54
2018-02-16T00:41:26.873Z,961.55
2018-02-16T00:42:26.811Z,961.51
2018-02-16T00:43:26.749Z,961.58
2018-02-16T00:44:26.691Z,961.56
2018-02-16T00:45:26.629Z,961.51
2018-02-16T00:46:26.572Z,961.54
2018-02-16T00:47:26.513Z,961.53
2018-02-16T00:48:26.452Z,961.48
2018-02-16T00:49:26.393Z,961.51
2018-02-16T00:50:26.334Z,961.50
2018-02-16T00:51:26.274Z,961.59
2018-02-16T00:52:26.216Z,961.56
2018-02-16T00:53:26.160Z,961.58
2018-02-16T00:54:26.097Z,961.53
2018-02-16T00:55:26.039Z,961.55
2018-02-16T00:56:25.978Z,961.59
2018-02-16T00:57:25.920Z,961.59
2018-02-16T00:58:25.861Z,961.60
2018-02-16T00:59:25.801Z,961.63
2018-02-16T01:00:25.743Z,961.63
2018-02-16T01:01:25.682Z,961.57
2018-02-16T01:02:25.624Z,961.60
2018-02-16T01:03:25.572Z,961.66
2018-02-16T01:04:25.503Z,961.65
2018-02-16T01:05:25.452Z,961.62
2018-02-16T01:06:25.387Z,961.60
2018-02-16T01:07:25.346Z,961.65
2018-02-16T01:08:25.270Z,961.65
2018-02-16T01:09:25.209Z,961.66
2018-02-16T01:10:25.152Z,961.72
2018-02-16T01:11:25.090Z,961.70
2018-02-16T01:12:25.036Z,961.71
2018-02-16T01:13:24.973Z,961.66
2018-02-16T01:14:24.912Z,961.74
2018-02-16T01:15:24.853Z,961.72
2018-02-16T01:16:24.793Z,961.71
2018-02-16T01:17:24.736Z,961.72
2018-02-16T01:18:24.679Z,961.70
2018-02-16T01:19:24.616Z,961.70
2018-02-16T01:20:24.559Z,961.72
2018-02-16T01:21:24.499Z,961.72
2018-02-16T01:22:24.441Z,961.72
2018-02-16T01:23:24.380Z,961.75
2018-02-16T01:24:24.321Z,961.71
2018-02-16T01:25:24.270Z,961.77
2018-02-16T01:26:24.202Z,961.82
2018-02-16T01:27:24.143Z,961.80
2018-02-16T01:28:24.084Z,961.81
2018-02-16T01:29:24.037Z,961.82
2018-02-16T01:30:23.968Z,961.80
2018-02-16T01:31:23.907Z,961.84
2018-02-16T01:32:23.846Z,961.79
2018-02-16T01:33:23.790Z,961.81
2018-02-16T01:34:23.733Z,961.82
2018-02-16T01:35:23.671Z,961.76
2018-02-16T01:36:23.610Z,961.79
2018-02-16T01:37:23.557Z,961.79
2018-02-16T01:38:23.494Z,961.79
2018-02-16T01:39:23.436Z,961.80
2018-02-16T01:40:23.376Z,961.82
2018-02-16T01:41:23.314Z,961.73
2018-02-16T01:42:23.257Z,961.79
2018-02-16T01:43:23.201Z,961.77
2018-02-16T01:44:23.138Z,961.81
2018-02-16T01:45:23.079Z,961.81
2018-02-16T01:46:23.020Z,961.95
2018-02-16T01:47:22.962Z,961.88
2018-02-16T01:48:22.902Z,961.90
2018-02-16T01:49:22.843Z,961.96
2018-02-16T01:50:22.783Z,961.97
2018-02-16T01:51:22.724Z,961.99
2018-02-16T01:52:22.665Z,961.99
2018-02-16T01:53:22.610Z,962.04
2018-02-16T01:54:22.550Z,961.97
2018-02-16T01:55:22.488Z,961.95
2018-02-16T01:56:22.432Z,961.92
2018-02-16T01:57:22.369Z,961.91
2018-02-16T01:58:22.316Z,961.91
2018-02-16T01:59:22.252Z,961.92
2018-02-16T02:00:22.192Z,961.94
2018-02-16T02:01:22.134Z,961.93
2018-02-16T02:02:22.075Z,961.92
2018-02-16T02:03:22.016Z,961.92
2018-02-16T02:04:21.956Z,961.95
2018-02-16T02:05:21.900Z,961.93
2018-02-16T02:06:21.840Z,961.90
2018-02-16T02:07:21.778Z,961.93
2018-02-16T02:08:21.722Z,961.88
2018-02-16T02:09:21.664Z,961.86
2018-02-16T02:10:21.603Z,961.85
2018-02-16T02:11:21.543Z,961.88
2018-02-16T02:12:21.486Z,961.87
2018-02-16T02:13:21.428Z,961.87
2018-02-16T02:14:21.368Z,961.85
2018-02-16T02:15:21.307Z,961.85
2018-02-16T02:16:21.248Z,961.90
2018-02-16T02:17:21.192Z,961.89
2018-02-16T02:18:21.132Z,961.92
2018-02-16T02:19:21.074Z,961.94
2018-02-16T02:20:21.012Z,961.89
2018-02-16T02:21:20.956Z,961.89
2018-02-16T02:22:20.896Z,961.90
2018-02-16T02:23:20.837Z,961.95
2018-02-16T02:24:20.777Z,961.92
2018-02-16T02:25:20.718Z,961.93
2018-02-16T02:26:20.662Z,961.95
2018-02-16T02:27:20.605Z,961.95
2018-02-16T02:28:20.543Z,961.94
2018-02-16T02:29:20.483Z,961.98
2018-02-16T02:30:20.428Z,962.06
2018-02-16T02:31:20.367Z,962.07
2018-02-16T02:32:20.311Z,962.03
2018-02-16T02:33:20.249Z,962.02
2018-02-16T02:34:20.191Z,962.11
2018-02-16T02:35:20.134Z,962.12
2018-02-16T02:36:20.070Z,962.10
2018-02-16T02:37:20.012Z,962.06
2018-02-16T02:38:19.953Z,962.17
2018-02-16T02:39:19.894Z,962.12
2018-02-16T02:40:19.834Z,962.17
2018-02-16T02:41:19.776Z,962.19
2018-02-16T02:42:19.721Z,962.16
2018-02-16T02:43:19.656Z,962.09
2018-02-16T02:44:19.602Z,962.15
2018-02-16T02:45:19.546Z,962.17
2018-02-16T02:46:19.481Z,962.16
2018-02-16T02:47:19.421Z,962.26
2018-02-16T02:48:19.362Z,962.19
2018-02-16T02:49:19.305Z,962.19
2018-02-16T02:50:19.247Z,962.13
2018-02-16T02:51:19.187Z,962.18
2018-02-16T02:52:19.132Z,962.17
2018-02-16T02:53:19.072Z,962.18
2018-02-16T02:54:19.009Z,962.14
2018-02-16T02:55:18.951Z,962.17
2018-02-16T02:56:18.890Z,962.19
2018-02-16T02:57:18.835Z,962.17
2018-02-16T02:58:18.773Z,962.17
2018-02-16T02:59:18.713Z,962.18
2018-02-16T03:00:18.658Z,962.21
2018-02-16T03:01:18.596Z,962.23
2018-02-16T03:02:18.539Z,962.25
2018-02-16T03:03:18.478Z,962.24
2018-02-16T03:04:18.422Z,962.24
2018-02-16T03:05:18.361Z,962.20
2018-02-16T03:06:18.304Z,962.21
2018-02-16T03:07:18.242Z,962.19
2018-02-16T03:08:18.183Z,962.24
2018-02-16T03:09:18.129Z,962.21
2018-02-16T03:10:18.067Z,962.24
2018-02-16T03:11:18.008Z,962.21
2018-02-16T03:12:17.952Z,962.25
2018-02-16T03:13:17.889Z,962.26
2018-02-16T03:14:17.830Z,962.27
2018-02-16T03:15:17.772Z,962.32
2018-02-16T03:16:17.714Z,962.35
2018-02-16T03:17:17.653Z,962.32
2018-02-16T03:18:17.597Z,962.33
2018-02-16T03:19:17.537Z,962.36
2018-02-16T03:20:17.477Z,962.34
2018-02-16T03:21:17.420Z,962.33
2018-02-16T03:22:17.361Z,962.36
2018-02-16T03:23:17.302Z,962.37
2018-02-16T03:24:17.243Z,962.37
2018-02-16T03:25:17.186Z,962.44
2018-02-16T03:26:17.124Z,962.44
2018-02-16T03:27:17.066Z,962.46
2018-02-16T03:28:17.006Z,962.47
2018-02-16T03:29:16.953Z,962.53
2018-02-16T03:30:16.899Z,962.54
2018-02-16T03:31:16.829Z,962.57
2018-02-16T03:32:16.771Z,962.60
2018-02-16T03:33:16.711Z,962.65
2018-02-16T03:34:16.654Z,962.64
2018-02-16T03:35:16.595Z,962.62
2018-02-16T03:36:16.536Z,962.64
2018-02-16T03:37:16.477Z,962.68
2018-02-16T03:38:16.419Z,962.68
2018-02-16T03:39:16.357Z,962.69
2018-02-16T03:40:16.299Z,962.68
2018-02-16T03:41:16.241Z,962.71
2018-02-16T03:42:16.180Z,962.73
2018-02-16T03:43:16.124Z,962.77
2018-02-16T03:44:16.088Z,962.79
2018-02-16T03:45:16.004Z,962.85
2018-02-16T03:46:15.947Z,962.85
2018-02-16T03:47:15.885Z,962.86
2018-02-16T03:48:15.829Z,962.86
2018-02-16T03:49:15.768Z,962.89
2018-02-16T03:50:15.711Z,962.90
2018-02-16T03:51:15.660Z,962.94
2018-02-16T03:52:15.591Z,962.93
2018-02-16T03:53:15.532Z,962.99
2018-02-16T03:54:15.474Z,962.99
2018-02-16T03:55:15.416Z,963.04
2018-02-16T03:56:15.355Z,963.02
2018-02-16T03:57:15.297Z,963.08
2018-02-16T03:58:15.240Z,963.09
2018-02-16T03:59:15.177Z,963.06
2018-02-16T04:00:15.117Z,963.08
2018-02-16T04:01:15.063Z,963.09
2018-02-16T04:02:15.004Z,963.11
2018-02-16T04:03:14.942Z,963.27
2018-02-16T04:04:14.883Z,963.25
2018-02-16T04:05:14.824Z,963.21
2018-02-16T04:06:14.762Z,963.21
2018-02-16T04:07:14.706Z,963.24
2018-02-16T04:08:14.645Z,963.24
2018-02-16T04:09:14.586Z,963.28
2018-02-16T04:10:14.527Z,963.32
2018-02-16T04:11:14.467Z,963.35
2018-02-16T04:12:14.406Z,963.33
2018-02-16T04:13:14.348Z,963.30
2018-02-16T04:14:14.291Z,963.28
2018-02-16T04:15:14.231Z,963.31
2018-02-16T04:16:14.170Z,963.31
2018-02-16T04:17:14.109Z,963.32
2018-02-16T04:18:14.062Z,963.28
2018-02-16T04:19:13.997Z,963.31
2018-02-16T04:20:13.933Z,963.31
2018-02-16T04:21:13.873Z,963.34
2018-02-16T04:22:13.813Z,963.37
2018-02-16T04:23:13.750Z,963.41
2018-02-16T04:24:13.691Z,963.43
2018-02-16T04:25:13.634Z,963.43
2018-02-16T04:26:13.576Z,963.44
2018-02-16T04:27:13.513Z,963.45
2018-02-16T04:28:13.454Z,963.50
2018-02-16T04:29:13.394Z,963.48
2018-02-16T04:30:13.333Z,963.50
2018-02-16T04:31:13.274Z,963.45
2018-02-16T04:32:13.216Z,963.49
2018-02-16T04:33:13.158Z,963.47
2018-02-16T04:34:13.096Z,963.51
2018-02-16T04:35:13.038Z,963.48
2018-02-16T04:36:12.978Z,963.52
2018-02-16T04:37:12.919Z,963.53
2018-02-16T04:38:12.859Z,963.54
2018-02-16T04:39:12.798Z,963.58
2018-02-16T04:40:12.768Z,963.57
2018-02-16T04:41:12.677Z,963.58
2018-02-16T04:42:12.624Z,963.59
2018-02-16T04:43:12.559Z,963.63
2018-02-16T04:44:12.499Z,963.64
2018-02-16T04:45:12.442Z,963.62
2018-02-16T04:46:12.381Z,963.66
2018-02-16T04:47:12.321Z,963.65
2018-02-16T04:48:12.260Z,963.68
2018-02-16T04:49:12.201Z,963.69
2018-02-16T04:50:12.141Z,963.73
2018-02-16T04:51:12.081Z,963.72
2018-02-16T04:52:12.020Z,963.78
2018-02-16T04:53:11.965Z,963.79
2018-02-16T04:54:11.902Z,963.77
2018-02-16T04:55:11.846Z,963.81
2018-02-16T04:56:11.783Z,963.88
2018-02-16T04:57:11.723Z,963.91
2018-02-16T04:58:11.663Z,963.89
2018-02-16T04:59:11.604Z,963.91
2018-02-16T05:00:11.544Z,963.96
2018-02-16T05:01:11.484Z,964.00
2018-02-16T05:02:11.427Z,964.00
2018-02-16T05:03:11.363Z,963.96
2018-02-16T05:04:11.306Z,964.02
2018-02-16T05:05:11.249Z,963.97
2018-02-16T05:06:11.186Z,964.00
2018-02-16T05:07:11.127Z,964.10
2018-02-16T05:08:11.065Z,964.09
2018-02-16T05:09:11.006Z,964.08
2018-02-16T05:10:10.948Z,964.09
2018-02-16T05:11:10.884Z,964.10
2018-02-16T05:12:10.829Z,964.13
2018-02-16T05:13:10.768Z,964.16
2018-02-16T05:14:10.709Z,964.15
2018-02-16T05:15:10.648Z,964.14
2018-02-16T05:16:10.587Z,964.16
2018-02-16T05:17:10.527Z,964.15
2018-02-16T05:18:10.470Z,964.15
2018-02-16T05:19:10.407Z,964.12
2018-02-16T05:20:10.348Z,964.14
2018-02-16T05:21:10.290Z,964.14
2018-02-16T05:22:10.229Z,964.20
2018-02-16T05:23:10.172Z,964.26
2018-02-16T05:24:10.110Z,964.32
2018-02-16T05:25:10.051Z,964.31
2018-02-16T05:26:09.992Z,964.35
2018-02-16T05:27:09.929Z,964.30
2018-02-16T05:28:09.869Z,964.31
2018-02-16T05:29:09.812Z,964.31
2018-02-16T05:30:09.751Z,964.26
2018-02-16T05:31:09.702Z,964.30
2018-02-16T05:32:09.629Z,964.34
2018-02-16T05:33:09.572Z,964.33
2018-02-16T05:34:09.512Z,964.33
2018-02-16T05:35:09.452Z,964.35
2018-02-16T05:36:09.392Z,964.34
2018-02-16T05:37:09.331Z,964.35
2018-02-16T05:38:09.274Z,964.31
2018-02-16T05:39:09.212Z,964.32
2018-02-16T05:40:09.184Z,964.35
2018-02-16T05:41:09.101Z,964.29
2018-02-16T05:42:09.037Z,964.27
2018-02-16T05:43:08.975Z,964.23
2018-02-16T05:44:08.914Z,964.24
2018-02-16T05:45:08.858Z,964.26
2018-02-16T05:46:08.800Z,964.30
2018-02-16T05:47:08.735Z,964.30
2018-02-16T05:48:08.676Z,964.31
2018-02-16T05:49:08.619Z,964.33
2018-02-16T05:50:08.560Z,964.38
2018-02-16T05:51:08.497Z,964.43
2018-02-16T05:52:08.438Z,964.47
2018-02-16T05:53:08.377Z,964.51
2018-02-16T05:54:08.317Z,964.55
2018-02-16T05:55:08.258Z,964.53
2018-02-16T05:56:08.199Z,964.60
2018-02-16T05:57:08.140Z,964.63
2018-02-16T05:58:08.079Z,964.56
2018-02-16T05:59:08.018Z,964.57
2018-02-16T06:00:07.961Z,964.54
2018-02-16T06:01:07.914Z,964.58
2018-02-16T06:02:07.840Z,964.60
2018-02-16T06:03:07.780Z,964.58
2018-02-16T06:04:07.724Z,964.57
2018-02-16T06:05:07.661Z,964.59
2018-02-16T06:06:07.602Z,964.62
2018-02-16T06:07:07.541Z,964.65
2018-02-16T06:08:07.481Z,964.63
2018-02-16T06:09:07.424Z,964.63
2018-02-16T06:10:07.368Z,964.63
2018-02-16T06:11:07.303Z,964.64
2018-02-16T06:12:07.246Z,964.70
2018-02-16T06:13:07.184Z,964.73
2018-02-16T06:14:07.129Z,964.70
2018-02-16T06:15:07.062Z,964.70
2018-02-16T06:16:07.003Z,964.71
2018-02-16T06:17:06.943Z,964.72
2018-02-16T06:18:06.885Z,964.77
2018-02-16T06:19:06.824Z,964.74
2018-02-16T06:20:06.773Z,964.78
2018-02-16T06:21:06.708Z,964.78
2018-02-16T06:22:06.645Z,964.85
2018-02-16T06:23:06.586Z,964.85
2018-02-16T06:24:06.525Z,964.88
2018-02-16T06:25:06.474Z,964.94
2018-02-16T06:26:06.407Z,964.94
2018-02-16T06:27:06.346Z,964.95
2018-02-16T06:28:06.286Z,964.95
2018-02-16T06:29:06.232Z,964.98
2018-02-16T06:30:06.166Z,965.00
2018-02-16T06:31:06.146Z,965.03
2018-02-16T06:32:06.049Z,965.08
2018-02-16T06:33:05.986Z,965.10
2018-02-16T06:34:05.926Z,965.12
2018-02-16T06:35:05.867Z,965.12
2018-02-16T06:36:05.808Z,965.16
2018-02-16T06:37:05.747Z,965.19
2018-02-16T06:38:05.692Z,965.16
2018-02-16T06:39:05.627Z,965.22
2018-02-16T06:40:05.568Z,965.23
2018-02-16T06:41:05.508Z,965.23
2018-02-16T06:42:05.452Z,965.24
2018-02-16T06:43:05.390Z,965.18
2018-02-16T06:44:05.330Z,965.22
2018-02-16T06:45:05.267Z,965.23
2018-02-16T06:46:05.208Z,965.27
2018-02-16T06:47:05.148Z,965.25
2018-02-16T06:48:05.088Z,965.27
2018-02-16T06:49:05.029Z,965.30
2018-02-16T06:50:04.970Z,965.34
2018-02-16T06:51:04.908Z,965.34
2018-02-16T06:52:04.854Z,965.34
2018-02-16T06:53:04.793Z,965.36
2018-02-16T06:54:04.729Z,965.34
2018-02-16T06:55:04.670Z,965.36
2018-02-16T06:56:04.611Z,965.35
2018-02-16T06:57:04.555Z,965.32
2018-02-16T06:58:04.489Z,965.35
2018-02-16T06:59:04.430Z,965.34
2018-02-16T07:00:04.371Z,965.41
2018-02-16T07:01:04.310Z,965.40
2018-02-16T07:02:04.252Z,965.40
2018-02-16T07:03:04.201Z,965.41
2018-02-16T07:04:04.137Z,965.36
2018-02-16T07:05:04.073Z,965.39
2018-02-16T07:06:04.012Z,965.44
2018-02-16T07:07:03.950Z,965.48
2018-02-16T07:08:03.891Z,965.44
2018-02-16T07:09:03.831Z,965.48
2018-02-16T07:10:03.775Z,965.46
2018-02-16T07:11:03.713Z,965.53
2018-02-16T07:12:03.668Z,965.51
2018-02-16T07:13:03.594Z,965.57
2018-02-16T07:14:03.532Z,965.56
2018-02-16T07:15:03.471Z,965.59
2018-02-16T07:16:03.412Z,965.60
2018-02-16T07:17:03.357Z,965.62
2018-02-16T07:18:03.295Z,965.63
2018-02-16T07:19:03.241Z,965.68
2018-02-16T07:20:03.177Z,965.70
2018-02-16T07:21:03.113Z,965.76
2018-02-16T07:22:03.053Z,965.77
2018-02-16T07:23:02.993Z,965.78
2018-02-16T07:24:02.934Z,965.82
2018-02-16T07:25:02.874Z,965.87
2018-02-16T07:26:02.817Z,965.89
2018-02-16T07:27:02.756Z,965.97
2018-02-16T07:28:02.697Z,965.93
2018-02-16T07:29:02.635Z,966.01
2018-02-16T07:30:02.583Z,966.06
2018-02-16T07:31:02.518Z,966.04
2018-02-16T07:32:02.455Z,966.09
2018-02-16T07:33:02.399Z,966.04
2018-02-16T07:34:02.334Z,966.08
2018-02-16T07:35:02.282Z,966.05
2018-02-16T07:36:03.118Z,966.03
2018-02-16T07:37:02.158Z,966.02
2018-02-16T07:38:02.097Z,966.00
2018-02-16T07:39:02.036Z,966.01
2018-02-16T07:40:01.977Z,966.01
2018-02-16T07:41:01.918Z,966.05
2018-02-16T07:42:01.857Z,966.05
2018-02-16T07:43:01.798Z,966.06
2018-02-16T07:44:01.733Z,966.05
2018-02-16T07:45:01.675Z,966.06
2018-02-16T07:46:01.616Z,966.04
2018-02-16T07:47:01.554Z,966.04
2018-02-16T07:48:01.493Z,966.04
2018-02-16T07:49:01.436Z,966.00
2018-02-16T07:50:01.375Z,966.05
2018-02-16T07:51:01.318Z,966.00
2018-02-16T07:52:01.257Z,966.05
2018-02-16T07:53:01.196Z,966.03
2018-02-16T07:54:01.135Z,966.02
2018-02-16T07:55:01.076Z,966.09
2018-02-16T07:56:01.018Z,966.14
2018-02-16T07:57:00.954Z,966.14
2018-02-16T07:58:00.898Z,966.17
2018-02-16T07:59:00.837Z,966.17
2018-02-16T08:00:00.780Z,966.18
2018-02-16T08:01:00.715Z,966.22
2018-02-16T08:02:00.661Z,966.25
2018-02-16T08:03:00.598Z,966.22
2018-02-16T08:04:00.536Z,966.24
2018-02-16T08:05:00.476Z,966.24
2018-02-16T08:06:00.419Z,966.26
2018-02-16T08:07:00.356Z,966.29
2018-02-16T08:08:00.295Z,966.33
2018-02-16T08:09:00.235Z,966.32
2018-02-16T08:10:00.177Z,966.30
2018-02-16T08:11:00.115Z,966.34
2018-02-16T08:12:00.057Z,966.38
2018-02-16T08:12:59.998Z,966.40
2018-02-16T08:13:59.935Z,966.39
2018-02-16T08:14:59.878Z,966.36
2018-02-16T08:15:59.816Z,966.38
2018-02-16T08:16:59.758Z,966.34
2018-02-16T08:17:59.696Z,966.38
2018-02-16T08:18:59.636Z,966.38
2018-02-16T08:19:59.580Z,966.33
2018-02-16T08:20:59.517Z,966.38
2018-02-16T08:21:59.457Z,966.37
2018-02-16T08:22:59.398Z,966.37
2018-02-16T08:23:59.338Z,966.37
2018-02-16T08:24:59.279Z,966.42
2018-02-16T08:25:59.219Z,966.42
2018-02-16T08:26:59.159Z,966.45
2018-02-16T08:27:59.098Z,966.52
2018-02-16T08:28:59.038Z,966.51
2018-02-16T08:29:58.978Z,966.51
2018-02-16T08:30:58.920Z,966.52
2018-02-16T08:31:58.859Z,966.56
2018-02-16T08:32:58.801Z,966.54
2018-02-16T08:33:58.740Z,966.59
2018-02-16T08:34:58.680Z,966.58
2018-02-16T08:35:58.619Z,966.58
2018-02-16T08:36:58.563Z,966.61
2018-02-16T08:37:58.506Z,966.58
2018-02-16T08:38:58.439Z,966.63
2018-02-16T08:39:58.396Z,966.68
2018-02-16T08:40:58.322Z,966.67
2018-02-16T08:41:58.264Z,966.63
2018-02-16T08:42:58.201Z,966.69
2018-02-16T08:43:58.142Z,966.61
2018-02-16T08:44:58.083Z,966.63
2018-02-16T08:45:58.025Z,966.63
2018-02-16T08:46:57.965Z,966.66
2018-02-16T08:47:57.903Z,966.68
2018-02-16T08:48:57.846Z,966.67
2018-02-16T08:49:57.784Z,966.72
2018-02-16T08:50:57.726Z,966.77
2018-02-16T08:51:57.665Z,966.79
2018-02-16T08:52:57.605Z,966.82
2018-02-16T08:53:57.547Z,966.81
2018-02-16T08:54:57.514Z,966.80
2018-02-16T08:55:57.427Z,966.79
2018-02-16T08:56:57.367Z,966.76
2018-02-16T08:57:57.309Z,966.78
2018-02-16T08:58:57.249Z,966.77
2018-02-16T08:59:57.191Z,966.77
2018-02-16T09:00:57.131Z,966.81
2018-02-16T09:01:57.072Z,966.82
2018-02-16T09:02:57.011Z,966.80
2018-02-16T09:03:56.951Z,966.83
2018-02-16T09:04:56.893Z,966.83
2018-02-16T09:05:56.834Z,966.88
2018-02-16T09:06:56.776Z,966.93
2018-02-16T09:07:56.732Z,966.94
2018-02-16T09:08:56.655Z,966.92
2018-02-16T09:09:56.596Z,966.98
2018-02-16T09:10:56.537Z,967.02
2018-02-16T09:11:56.477Z,967.05
2018-02-16T09:12:56.418Z,967.09
2018-02-16T09:13:56.359Z,967.12
2018-02-16T09:14:56.297Z,967.11
2018-02-16T09:15:56.239Z,967.13
2018-02-16T09:16:56.180Z,967.04
2018-02-16T09:17:56.120Z,967.01
2018-02-16T09:18:56.059Z,967.03
2018-02-16T09:19:56.001Z,967.04
2018-02-16T09:20:55.943Z,967.08
2018-02-16T09:21:55.885Z,967.07
2018-02-16T09:22:55.860Z,967.07
2018-02-16T09:23:55.765Z,967.04
2018-02-16T09:24:55.709Z,967.04
2018-02-16T09:25:55.644Z,967.03
2018-02-16T09:26:55.585Z,967.04
2018-02-16T09:27:55.528Z,967.03
2018-02-16T09:28:55.470Z,967.04
2018-02-16T09:29:55.411Z,967.07
2018-02-16T09:30:55.349Z,967.13
2018-02-16T09:31:55.291Z,967.08
2018-02-16T09:32:55.233Z,967.09
2018-02-16T09:33:55.176Z,967.21
2018-02-16T09:34:55.115Z,967.22
2018-02-16T09:35:55.055Z,967.27
2018-02-16T09:36:55.006Z,967.27
2018-02-16T09:37:54.939Z,967.28
2018-02-16T09:38:54.877Z,967.29
2018-02-16T09:39:54.817Z,967.27
2018-02-16T09:40:54.760Z,967.26
2018-02-16T09:41:54.699Z,967.27
2018-02-16T09:42:54.640Z,967.36
2018-02-16T09:43:54.580Z,967.37
2018-02-16T09:44:54.528Z,967.39
2018-02-16T09:45:54.464Z,967.41
2018-02-16T09:46:54.406Z,967.36
2018-02-16T09:47:54.344Z,967.40
2018-02-16T09:48:54.288Z,967.34
2018-02-16T09:49:54.236Z,967.35
2018-02-16T09:50:54.169Z,967.38
2018-02-16T09:51:54.108Z,967.43
2018-02-16T09:52:54.049Z,967.46
2018-02-16T09:53:53.990Z,967.45
2018-02-16T09:54:53.936Z,967.49
2018-02-16T09:55:53.876Z,967.46
2018-02-16T09:56:53.813Z,967.49
2018-02-16T09:57:53.761Z,967.52
2018-02-16T09:58:53.698Z,967.49
2018-02-16T09:59:53.636Z,967.52
2018-02-16T10:00:53.582Z,967.50
2018-02-16T10:01:53.519Z,967.52
2018-02-16T10:02:53.460Z,967.48
2018-02-16T10:03:53.404Z,967.50
2018-02-16T10:04:53.345Z,967.52
2018-02-16T10:05:53.287Z,967.54
2018-02-16T10:06:53.226Z,967.57
2018-02-16T10:07:53.160Z,967.62
2018-02-16T10:08:53.109Z,967.62
2018-02-16T10:09:53.051Z,967.66
2018-02-16T10:10:52.991Z,967.66
2018-02-16T10:11:52.932Z,967.65
2018-02-16T10:12:52.924Z,967.68
2018-02-16T10:13:52.817Z,967.64
2018-02-16T10:14:52.757Z,967.64
2018-02-16T10:15:52.702Z,967.64
2018-02-16T10:16:52.641Z,967.66
2018-02-16T10:17:52.584Z,967.68
2018-02-16T10:18:52.521Z,967.64
2018-02-16T10:19:52.464Z,967.65
2018-02-16T10:20:52.410Z,967.64
2018-02-16T10:21:52.348Z,967.64
2018-02-16T10:22:52.288Z,967.66
2018-02-16T10:23:52.230Z,967.63
2018-02-16T10:24:52.174Z,967.66
2018-02-16T10:25:52.113Z,967.70
2018-02-16T10:26:52.054Z,967.67
2018-02-16T10:27:51.998Z,967.65
2018-02-16T10:28:51.941Z,967.62
2018-02-16T10:29:51.881Z,967.64
2018-02-16T10:30:51.820Z,967.64
2018-02-16T10:31:51.763Z,967.63
2018-02-16T10:32:51.704Z,967.65
2018-02-16T10:33:51.647Z,967.63
2018-02-16T10:34:51.589Z,967.69
2018-02-16T10:35:51.536Z,967.72
2018-02-16T10:36:51.471Z,967.70
2018-02-16T10:37:51.414Z,967.67
2018-02-16T10:38:51.356Z,967.65
2018-02-16T10:39:51.319Z,967.60
2018-02-16T10:40:51.239Z,967.55
2018-02-16T10:41:51.210Z,967.60
2018-02-16T10:42:51.127Z,967.61
2018-02-16T10:43:51.066Z,967.62
2018-02-16T10:44:51.008Z,967.59
2018-02-16T10:45:50.951Z,967.55
2018-02-16T10:46:50.901Z,967.55
2018-02-16T10:47:50.837Z,967.54
2018-02-16T10:48:50.777Z,967.57
2018-02-16T10:49:50.760Z,967.60
2018-02-16T10:50:50.664Z,967.58
2018-02-16T10:51:50.605Z,967.60
2018-02-16T10:52:50.547Z,967.65
2018-02-16T10:53:50.488Z,967.67
2018-02-16T10:54:50.433Z,967.65
2018-02-16T10:55:50.374Z,967.66
2018-02-16T10:56:50.316Z,967.68
2018-02-16T10:57:50.259Z,967.66
2018-02-16T10:58:50.198Z,967.66
2018-02-16T10:59:50.147Z,967.66
2018-02-16T11:00:50.085Z,967.65
2018-02-16T11:01:50.029Z,967.68
2018-02-16T11:02:49.970Z,967.63
2018-02-16T11:03:49.915Z,967.69
2018-02-16T11:04:49.855Z,967.68
2018-02-16T11:05:49.797Z,967.67
2018-02-16T11:06:49.735Z,967.67
2018-02-16T11:07:49.684Z,967.70
2018-02-16T11:08:49.625Z,967.66
2018-02-16T11:09:49.570Z,967.67
2018-02-16T11:10:49.509Z,967.68
2018-02-16T11:11:49.453Z,967.66
2018-02-16T11:12:49.430Z,967.65
2018-02-16T11:13:49.337Z,967.66
2018-02-16T11:14:49.279Z,967.64
2018-02-16T11:15:49.224Z,967.72
2018-02-16T11:16:49.164Z,967.73
2018-02-16T11:17:49.111Z,967.70
2018-02-16T11:18:49.049Z,967.67
2018-02-16T11:19:48.992Z,967.67
2018-02-16T11:20:48.935Z,967.67
2018-02-16T11:21:48.879Z,967.69
2018-02-16T11:22:48.820Z,967.71
2018-02-16T11:23:48.782Z,967.66
2018-02-16T11:24:48.708Z,967.67
2018-02-16T11:25:48.652Z,967.64
2018-02-16T11:26:48.594Z,967.63
2018-02-16T11:27:48.533Z,967.59
2018-02-16T11:28:48.479Z,967.55
2018-02-16T11:29:48.420Z,967.57
2018-02-16T11:30:48.364Z,967.61
2018-02-16T11:31:48.304Z,967.59
2018-02-16T11:32:48.252Z,967.63
2018-02-16T11:33:48.188Z,967.63
2018-02-16T11:34:48.137Z,967.63
2018-02-16T11:35:48.076Z,967.57
2018-02-16T11:36:48.051Z,967.56
2018-02-16T11:37:47.963Z,967.54
2018-02-16T11:38:47.919Z,967.54
2018-02-16T11:39:47.845Z,967.50
2018-02-16T11:40:47.794Z,967.51
2018-02-16T11:41:47.739Z,967.51
2018-02-16T11:42:47.675Z,967.54
2018-02-16T11:43:47.618Z,967.54
2018-02-16T11:44:47.562Z,967.56
2018-02-16T11:45:47.501Z,967.54
2018-02-16T11:46:47.445Z,967.54
2018-02-16T11:47:47.386Z,967.56
2018-02-16T11:48:47.334Z,967.60
2018-02-16T11:49:47.276Z,967.61
2018-02-16T11:50:47.215Z,967.59
2018-02-16T11:51:47.159Z,967.55
2018-02-16T11:52:47.100Z,967.57
2018-02-16T11:53:47.050Z,967.56
2018-02-16T11:54:46.986Z,967.54
2018-02-16T11:55:46.928Z,967.54
2018-02-16T11:56:46.871Z,967.54
2018-02-16T11:57:46.813Z,967.52
2018-02-16T11:58:46.758Z,967.55
2018-02-16T11:59:46.698Z,967.56
2018-02-16T12:00:46.644Z,967.53
2018-02-16T12:01:46.582Z,967.50
2018-02-16T12:02:46.526Z,967.52
2018-02-16T12:03:46.470Z,967.52
2018-02-16T12:04:46.411Z,967.48
2018-02-16T12:05:46.354Z,967.51
2018-02-16T12:06:46.295Z,967.49
2018-02-16T12:07:46.239Z,967.50
2018-02-16T12:08:46.183Z,967.50
2018-02-16T12:09:46.123Z,967.49
2018-02-16T12:10:46.064Z,967.52
2018-02-16T12:11:46.006Z,967.52
2018-02-16T12:12:45.949Z,967.54
2018-02-16T12:13:45.890Z,967.54
2018-02-16T12:14:45.833Z,967.54
2018-02-16T12:15:45.776Z,967.49
2018-02-16T12:16:45.718Z,967.51
2018-02-16T12:17:45.659Z,967.48
2018-02-16T12:18:45.602Z,967.48
2018-02-16T12:19:45.549Z,967.49
2018-02-16T12:20:45.486Z,967.48
2018-02-16T12:21:45.428Z,967.52
2018-02-16T12:22:45.370Z,967.56
2018-02-16T12:23:45.313Z,967.57
2018-02-16T12:24:45.254Z,967.60
2018-02-16T12:25:45.198Z,967.55
2018-02-16T12:26:45.141Z,967.56
2018-02-16T12:27:45.081Z,967.58